Time;durP1;ratioP1;P1;durP2;ratioP2;P2;SDS_P1;SDS_P2;PMS_P1;PMS_P2;Temp;Humidity;BMP_temperature;BMP_pressure;BME280_temperature;BME280_humidity;BME280_pressure;Samples;Min_cycle;Max_cycle;Signal;HPM_P1;HPM_P2
2022/11/21 00:01:25;;;;;;;6.82;1.88;;;;;;;6.14;100.00;97694.66;4138916;28;20215;-45
2022/11/21 00:03:27;;;;;;;1.63;1.50;;;;;;;6.14;100.00;97694.66;4153486;28;20266;-45
2022/11/21 00:05:29;;;;;;;1.60;1.38;;;;;;;6.20;100.00;97690.97;4142475;28;20230;-45
2022/11/21 00:07:31;;;;;;;2.70;1.67;;;;;;;6.22;100.00;97688.84;4138265;28;20284;-45
2022/11/21 00:09:35;;;;;;;8.35;2.25;;;;;;;6.30;100.00;97685.75;4137628;28;20206;-45
2022/11/21 00:11:37;;;;;;;5.15;1.77;;;;;;;6.21;100.00;97692.59;4139290;28;20679;-46
2022/11/21 00:13:39;;;;;;;3.47;3.10;;;;;;;6.29;100.00;97679.47;4121844;28;20261;-45
2022/11/21 00:15:41;;;;;;;3.83;1.60;;;;;;;6.29;100.00;97679.47;4126478;28;20237;-45
2022/11/21 00:17:42;;;;;;;2.13;1.92;;;;;;;6.27;100.00;97688.91;4150971;28;20209;-45
2022/11/21 00:19:44;;;;;;;2.28;1.73;;;;;;;6.28;100.00;97693.31;4120520;28;20906;-46
2022/11/21 00:21:46;;;;;;;2.55;1.45;;;;;;;6.36;100.00;97690.19;4143114;28;20220;-45
2022/11/21 00:23:47;;;;;;;4.43;1.77;;;;;;;6.38;100.00;97688.06;4135504;28;20866;-45
2022/11/21 00:25:49;;;;;;;11.13;2.38;;;;;;;6.40;100.00;97691.34;4141987;28;20602;-45
2022/11/21 00:27:52;;;;;;;5.22;2.28;;;;;;;6.44;100.00;97693.34;4140046;28;20213;-45
2022/11/21 00:29:53;;;;;;;3.78;2.08;;;;;;;6.49;100.00;97689.91;4141051;28;20296;-45
2022/11/21 00:31:55;;;;;;;1.58;1.42;;;;;;;6.47;100.00;97689.28;4155542;28;20769;-46
2022/11/21 00:33:57;;;;;;;3.20;1.95;;;;;;;6.45;100.00;97692.28;4137796;28;20243;-45
2022/11/21 00:36:07;;;;;;;4.07;1.60;;;;;;;6.50;100.00;97680.69;4139225;28;20288;-45
2022/11/21 00:38:09;;;;;;;6.47;2.45;;;;;;;6.49;100.00;97673.59;4141437;28;20205;-45
2022/11/21 00:40:11;;;;;;;4.40;1.83;;;;;;;6.49;100.00;97673.59;4142520;28;20264;-45
2022/11/21 00:42:13;;;;;;;1.98;1.27;;;;;;;6.45;100.00;97672.44;4153890;28;20252;-45
2022/11/21 00:44:14;;;;;;;4.70;1.08;;;;;;;6.43;100.00;97669.13;4123993;28;20261;-45
2022/11/21 00:46:16;;;;;;;1.25;1.10;;;;;;;6.42;100.00;97662.06;4135506;28;20213;-46
2022/11/21 00:48:18;;;;;;;1.15;1.15;;;;;;;6.44;100.00;97668.06;4136908;28;20213;-45
2022/11/21 00:50:20;;;;;;;7.95;2.53;;;;;;;6.38;100.00;97660.88;4125515;28;20624;-45
2022/11/21 00:52:21;;;;;;;4.20;1.60;;;;;;;6.35;100.00;97658.69;4138719;28;20210;-45
2022/11/21 00:54:23;;;;;;;1.70;1.60;;;;;;;6.30;100.00;97653.16;4139837;28;20324;-46
2022/11/21 00:56:25;;;;;;;1.45;1.40;;;;;;;6.23;100.00;97652.47;4154701;28;20201;-45
2022/11/21 00:58:27;;;;;;;3.58;1.58;;;;;;;6.22;100.00;97656.25;4124862;28;20293;-45
2022/11/21 01:00:29;;;;;;;2.88;1.92;;;;;;;6.17;100.00;97653.44;4120516;28;20209;-45
2022/11/21 01:02:31;;;;;;;3.08;1.50;;;;;;;6.17;100.00;97656.16;4137633;28;20206;-45
2022/11/21 01:04:34;;;;;;;3.22;2.00;;;;;;;6.09;100.00;97651.13;4137161;28;20264;-46
2022/11/21 01:06:39;;;;;;;5.72;1.80;;;;;;;6.02;100.00;97653.16;4139538;28;20243;-45
2022/11/21 01:08:42;;;;;;;1.33;1.23;;;;;;;6.04;100.00;97653.72;4138503;28;20241;-45
2022/11/21 01:10:44;;;;;;;7.57;2.08;;;;;;;6.04;100.00;97638.25;4136273;28;20237;-45
2022/11/21 01:12:46;;;;;;;2.00;1.52;;;;;;;6.00;100.00;97647.13;4138325;28;20683;-45
2022/11/21 01:14:48;;;;;;;3.20;1.58;;;;;;;5.94;100.00;97643.50;4137904;28;20225;-45
2022/11/21 01:16:49;;;;;;;1.70;1.33;;;;;;;5.93;100.00;97636.44;4139319;28;20250;-46
2022/11/21 01:18:51;;;;;;;2.58;1.20;;;;;;;5.96;100.00;97627.78;4136661;28;20254;-45
2022/11/21 01:20:53;;;;;;;2.88;1.48;;;;;;;6.00;100.00;97636.25;4137401;28;20727;-45
2022/11/21 01:22:55;;;;;;;1.27;1.27;;;;;;;5.94;100.00;97634.50;4136644;28;20209;-45
2022/11/21 01:24:57;;;;;;;1.58;1.20;;;;;;;5.92;100.00;97644.81;4136695;28;20316;-45
2022/11/21 01:26:58;;;;;;;4.75;1.40;;;;;;;5.89;100.00;97639.88;4152885;28;20248;-45
2022/11/21 01:29:00;;;;;;;2.28;1.08;;;;;;;5.96;100.00;97640.56;4137867;28;20252;-46
2022/11/21 01:31:21;;;;;;;1.00;1.00;;;;;;;5.99;100.00;97634.63;4138715;28;20289;-46
2022/11/21 01:33:23;;;;;;;1.30;1.20;;;;;;;5.97;100.00;97648.44;4140446;28;20225;-46
2022/11/21 01:35:25;;;;;;;1.45;1.23;;;;;;;6.00;100.00;97644.41;4140993;28;20201;-46
2022/11/21 01:37:27;;;;;;;7.07;1.25;;;;;;;6.05;100.00;97633.66;4136044;28;20245;-46
2022/11/21 01:39:28;;;;;;;7.82;1.63;;;;;;;6.13;100.00;97620.50;4137900;28;20300;-46
2022/11/21 01:41:41;;;;;;;2.03;1.60;;;;;;;6.07;100.00;97626.91;4136199;28;20579;-46
2022/11/21 01:43:43;;;;;;;2.25;1.30;;;;;;;6.11;100.00;97628.09;4127532;28;20256;-45
2022/11/21 01:46:23;;;;;;;2.30;1.20;;;;;;;6.15;100.00;97628.44;4139447;28;20217;-46
2022/11/21 01:48:35;;;;;;;1.95;1.40;;;;;;;6.18;100.00;97634.19;4141259;28;20284;-46
2022/11/21 01:50:37;;;;;;;1.60;1.50;;;;;;;6.17;100.00;97629.00;4141313;28;20316;-45
2022/11/21 01:52:38;;;;;;;1.77;1.63;;;;;;;6.21;100.00;97632.84;4123950;28;20319;-46
2022/11/21 01:54:42;;;;;;;1.88;1.30;;;;;;;6.24;100.00;97632.38;4136772;28;20332;-46
2022/11/21 01:56:46;;;;;;;2.25;2.05;;;;;;;6.22;100.00;97631.81;4140195;28;20213;-45
2022/11/21 01:58:48;;;;;;;3.30;1.35;;;;;;;6.22;100.00;97631.81;4152095;28;20240;-45
2022/11/21 02:00:50;;;;;;;1.52;1.40;;;;;;;6.23;100.00;97636.19;4150549;28;20220;-45
2022/11/21 02:02:55;;;;;;;4.70;1.63;;;;;;;6.28;100.00;97641.72;4151837;28;20279;-45
2022/11/21 02:04:57;;;;;;;2.08;1.27;;;;;;;6.30;100.00;97645.00;4135963;28;20671;-45
2022/11/21 02:07:01;;;;;;;3.50;1.08;;;;;;;6.33;100.00;97636.34;4139746;28;20288;-46
2022/11/21 02:09:03;;;;;;;2.17;1.88;;;;;;;6.32;100.00;97640.13;4124490;28;20218;-46
2022/11/21 02:11:08;;;;;;;1.52;1.42;;;;;;;6.30;100.00;97647.72;4133168;28;20220;-46
2022/11/21 02:13:13;;;;;;;1.95;1.50;;;;;;;6.33;100.00;97641.78;4136194;28;20595;-46
2022/11/21 02:15:16;;;;;;;1.80;1.70;;;;;;;6.32;100.00;97640.97;4140733;28;20291;-47
2022/11/21 02:17:18;;;;;;;5.93;1.95;;;;;;;6.36;100.00;97641.31;4130299;28;20205;-46
2022/11/21 02:19:28;;;;;;;2.70;1.35;;;;;;;6.38;100.00;97644.59;4129738;28;20237;-45
2022/11/21 02:21:56;;;;;;;4.80;1.65;;;;;;;6.36;100.00;97644.03;4136820;28;20207;-47
2022/11/21 02:24:05;;;;;;;1.58;1.33;;;;;;;6.31;100.00;97649.34;4135933;28;20737;-45
2022/11/21 02:26:07;;;;;;;1.88;1.67;;;;;;;6.33;100.00;97644.50;4124233;28;20256;-46
2022/11/21 02:28:15;;;;;;;2.10;1.42;;;;;;;6.32;100.00;97637.41;4152110;28;20332;-46
2022/11/21 02:30:17;;;;;;;1.50;1.40;;;;;;;6.31;100.00;97642.03;4138179;28;20266;-46
2022/11/21 02:32:32;;;;;;;10.65;1.30;;;;;;;6.32;100.00;97640.13;4124601;28;20241;-46
2022/11/21 02:34:33;;;;;;;3.80;1.40;;;;;;;6.32;100.00;97634.69;4134108;28;20375;-46
2022/11/21 02:36:41;;;;;;;1.10;1.00;;;;;;;6.23;100.00;97636.19;4137099;28;20205;-46
2022/11/21 02:38:43;;;;;;;2.63;1.33;;;;;;;6.24;100.00;97640.53;4132568;28;20246;-46
2022/11/21 02:41:01;;;;;;;1.60;1.50;;;;;;;6.19;100.00;97640.44;4134001;28;20252;-46
2022/11/21 02:43:22;;;;;;;0.95;0.95;;;;;;;6.18;100.00;97633.34;4132912;28;20195;-45
2022/11/21 02:45:29;;;;;;;2.33;1.05;;;;;;;6.15;100.00;97636.56;4135582;28;20685;-46
2022/11/21 02:47:33;;;;;;;1.77;1.30;;;;;;;6.16;100.00;97632.78;4152169;28;20211;-46
2022/11/21 02:50:11;;;;;;;1.63;1.30;;;;;;;6.10;100.00;97636.47;4138080;28;20674;-46
2022/11/21 02:52:13;;;;;;;2.50;1.20;;;;;;;6.19;100.00;97630.41;4138483;28;20592;-46
2022/11/21 02:54:14;;;;;;;2.05;1.85;;;;;;;6.16;100.00;97641.75;4148612;28;20304;-48
2022/11/21 02:56:16;;;;;;;1.17;1.00;;;;;;;6.16;100.00;97632.78;4137764;28;20212;-46
2022/11/21 02:58:18;;;;;;;1.65;1.02;;;;;;;6.13;100.00;97641.41;4151360;28;20236;-45
2022/11/21 03:00:21;;;;;;;1.20;1.20;;;;;;;6.10;100.00;97647.34;4138703;28;20244;-46
2022/11/21 03:02:22;;;;;;;0.77;0.77;;;;;;;6.06;100.00;97646.16;4137023;28;20938;-46
2022/11/21 03:04:25;;;;;;;1.35;1.25;;;;;;;6.04;100.00;97642.88;4136693;28;20265;-46
2022/11/21 03:06:27;;;;;;;1.13;1.13;;;;;;;6.00;100.00;97647.13;4142176;28;20217;-46
2022/11/21 03:08:29;;;;;;;1.35;1.10;;;;;;;6.01;100.00;97649.59;4142702;28;20213;-46
2022/11/21 03:10:31;;;;;;;1.27;1.27;;;;;;;6.02;100.00;97650.44;4144366;28;20645;-46
2022/11/21 03:12:35;;;;;;;1.60;1.50;;;;;;;5.96;100.00;97645.97;4140719;28;20678;-46
2022/11/21 03:14:37;;;;;;;1.08;1.08;;;;;;;6.12;100.00;97650.63;4138913;28;20323;-46
2022/11/21 03:16:39;;;;;;;1.70;1.00;;;;;;;6.10;100.00;97641.91;4142861;28;20197;-46
2022/11/21 03:18:40;;;;;;;1.38;0.90;;;;;;;6.14;100.00;97653.91;4139519;28;20846;-46
2022/11/21 03:20:42;;;;;;;1.85;1.10;;;;;;;6.13;100.00;97642.25;4138436;28;20205;-46
2022/11/21 03:22:44;;;;;;;1.25;1.15;;;;;;;6.18;100.00;97641.50;4122764;28;20248;-45
2022/11/21 03:24:46;;;;;;;1.10;1.10;;;;;;;6.09;100.00;97651.13;4134749;28;20647;-46
2022/11/21 03:26:48;;;;;;;1.10;1.02;;;;;;;6.08;100.00;97644.03;4153460;28;20302;-46
2022/11/21 03:28:49;;;;;;;1.60;0.88;;;;;;;6.11;100.00;97643.53;4139600;28;20213;-46
2022/11/21 03:30:51;;;;;;;1.25;1.15;;;;;;;6.09;100.00;97640.25;4142569;28;20737;-46
2022/11/21 03:32:56;;;;;;;1.00;1.00;;;;;;;6.13;100.00;97642.25;4141216;28;20233;-46
2022/11/21 03:34:58;;;;;;;1.63;1.52;;;;;;;6.09;100.00;97648.41;4140433;28;20210;-45
2022/11/21 03:36:59;;;;;;;1.30;0.93;;;;;;;6.11;100.00;97654.41;4139457;28;20634;-45
2022/11/21 03:39:02;;;;;;;1.55;1.45;;;;;;;6.13;100.00;97649.56;4140311;28;20296;-45
2022/11/21 03:41:05;;;;;;;2.03;1.38;;;;;;;6.11;100.00;97644.38;4139574;28;20236;-45
2022/11/21 03:43:09;;;;;;;2.28;0.93;;;;;;;6.05;100.00;97652.66;4134327;28;20252;-46
2022/11/21 03:45:11;;;;;;;1.00;1.00;;;;;;;6.11;100.00;97654.41;4135283;28;20674;-45
2022/11/21 03:47:12;;;;;;;2.03;1.10;;;;;;;6.07;100.00;97654.06;4139334;28;20306;-46
2022/11/21 03:49:15;;;;;;;1.38;0.95;;;;;;;6.02;100.00;97655.88;4145047;28;20229;-45
2022/11/21 03:51:18;;;;;;;1.40;1.30;;;;;;;6.01;100.00;97655.03;4143929;28;20253;-45
2022/11/21 03:53:19;;;;;;;1.48;1.10;;;;;;;5.99;100.00;97645.47;4154942;28;20256;-46
2022/11/21 03:55:21;;;;;;;1.05;1.05;;;;;;;6.02;100.00;97651.25;4142403;28;20249;-45
2022/11/21 03:57:23;;;;;;;1.10;1.00;;;;;;;6.07;100.00;97653.22;4142643;28;20677;-45
2022/11/21 03:59:25;;;;;;;2.85;1.38;;;;;;;6.06;100.00;97647.00;4154258;28;20272;-45
2022/11/21 04:01:27;;;;;;;5.57;0.85;;;;;;;6.08;100.00;97638.63;4130709;28;20877;-45
2022/11/21 04:03:35;;;;;;;1.17;1.15;;;;;;;6.06;100.00;97640.72;4145138;28;20235;-45
2022/11/21 04:05:37;;;;;;;1.10;1.10;;;;;;;6.09;100.00;97651.13;4139441;28;20252;-45
2022/11/21 04:07:39;;;;;;;1.45;1.33;;;;;;;6.07;100.00;97650.53;4129495;28;20820;-46
2022/11/21 04:09:41;;;;;;;1.00;1.00;;;;;;;6.08;100.00;97649.47;4143326;28;20232;-45
2022/11/21 04:11:42;;;;;;;1.00;1.00;;;;;;;6.11;100.00;97654.41;4152858;28;20212;-46
2022/11/21 04:13:44;;;;;;;1.42;1.33;;;;;;;6.17;100.00;97653.44;4139630;28;20315;-45
2022/11/21 04:15:46;;;;;;;2.35;1.10;;;;;;;6.20;100.00;97652.94;4125505;28;20963;-45
2022/11/21 04:17:48;;;;;;;2.25;1.60;;;;;;;6.13;100.00;97642.25;4139294;28;20252;-45
2022/11/21 04:19:49;;;;;;;1.58;1.48;;;;;;;6.17;100.00;97642.56;4135519;28;20480;-45
2022/11/21 04:21:51;;;;;;;2.17;1.85;;;;;;;6.18;100.00;97655.94;4137645;28;20303;-45
2022/11/21 04:23:53;;;;;;;2.85;2.47;;;;;;;6.15;100.00;97644.72;4138604;28;20736;-45
2022/11/21 04:25:55;;;;;;;2.95;1.50;;;;;;;6.18;100.00;97641.50;4138210;28;20778;-46
2022/11/21 04:27:57;;;;;;;1.63;1.35;;;;;;;6.18;100.00;97639.63;4153039;28;20315;-47
2022/11/21 04:29:59;;;;;;;2.97;2.13;;;;;;;6.15;100.00;97650.16;4142356;28;20252;-45
2022/11/21 04:32:01;;;;;;;1.73;1.60;;;;;;;6.19;100.00;97641.28;4150518;28;20296;-45
2022/11/21 04:34:03;;;;;;;1.85;1.75;;;;;;;6.20;100.00;97642.91;4133670;28;20229;-45
2022/11/21 04:36:06;;;;;;;5.65;2.15;;;;;;;6.14;100.00;97643.03;4153247;28;20237;-45
2022/11/21 04:38:08;;;;;;;4.25;1.80;;;;;;;6.17;100.00;97637.16;4141737;28;20834;-45
2022/11/21 04:40:11;;;;;;;4.43;1.92;;;;;;;6.17;100.00;97648.00;4136946;28;20248;-45
2022/11/21 04:42:13;;;;;;;2.42;1.58;;;;;;;6.09;100.00;97645.69;4154383;28;20196;-45
2022/11/21 04:44:14;;;;;;;2.75;2.53;;;;;;;6.06;100.00;97638.00;4132637;28;20667;-46
2022/11/21 04:46:17;;;;;;;3.00;2.80;;;;;;;6.05;100.00;97639.09;4136067;28;20901;-47
2022/11/21 04:48:19;;;;;;;6.63;1.73;;;;;;;6.06;100.00;97647.00;4149330;28;20248;-46
2022/11/21 04:50:21;;;;;;;2.03;1.88;;;;;;;6.00;100.00;97641.69;4140717;28;20233;-46
2022/11/21 04:52:23;;;;;;;5.32;2.70;;;;;;;6.03;100.00;97639.31;4137404;28;20218;-45
2022/11/21 04:54:24;;;;;;;1.75;1.40;;;;;;;6.02;100.00;97634.16;4139188;28;20237;-46
2022/11/21 04:56:27;;;;;;;5.80;2.03;;;;;;;5.94;100.00;97629.09;4136157;28;20296;-46
2022/11/21 04:58:29;;;;;;;2.35;1.45;;;;;;;6.00;100.00;97628.13;4135940;28;20213;-45
2022/11/21 05:00:30;;;;;;;1.92;1.42;;;;;;;6.03;100.00;97631.19;4120928;28;20725;-45
2022/11/21 05:02:32;;;;;;;4.70;1.33;;;;;;;6.10;100.00;97629.13;4139183;28;20300;-46
2022/11/21 05:04:34;;;;;;;1.52;1.42;;;;;;;6.07;100.00;97634.22;4120573;28;20261;-46
2022/11/21 05:06:36;;;;;;;1.50;1.40;;;;;;;6.07;100.00;97637.78;4138918;28;20221;-45
2022/11/21 05:08:38;;;;;;;2.67;1.77;;;;;;;6.07;100.00;97636.94;4140795;28;20214;-45
2022/11/21 05:13:21;;;;;;;1.00;1.00;;;;;;;6.02;100.00;97634.16;4138811;28;20217;-46
2022/11/21 05:15:24;;;;;;;2.13;1.60;;;;;;;6.02;100.00;97642.31;4141077;28;20209;-46
2022/11/21 05:17:29;;;;;;;3.55;1.75;;;;;;;5.97;100.00;97637.56;4124176;28;21488;-45
2022/11/21 05:19:30;;;;;;;5.75;1.60;;;;;;;5.85;100.00;97633.25;4135769;28;20750;-45
2022/11/21 05:21:32;;;;;;;3.08;1.55;;;;;;;5.84;100.00;97631.63;4137558;28;20260;-44
2022/11/21 05:23:34;;;;;;;1.77;1.67;;;;;;;5.85;100.00;97622.41;4140188;28;20264;-45
2022/11/21 05:25:36;;;;;;;1.95;1.70;;;;;;;5.83;100.00;97627.25;4140907;28;20236;-46
2022/11/21 05:27:38;;;;;;;3.47;1.90;;;;;;;5.85;100.00;97628.69;4138197;28;20237;-45
2022/11/21 05:29:40;;;;;;;3.92;1.95;;;;;;;5.81;100.00;97632.09;4140799;28;20217;-45
2022/11/21 05:31:41;;;;;;;2.30;1.63;;;;;;;5.85;100.00;97633.25;4137720;28;20279;-45
2022/11/21 05:33:43;;;;;;;1.92;1.73;;;;;;;5.79;100.00;97628.78;4137086;28;20225;-46
2022/11/21 05:35:45;;;;;;;1.40;1.30;;;;;;;5.75;100.00;97636.56;4121811;28;20268;-46
2022/11/21 05:37:47;;;;;;;1.67;1.58;;;;;;;5.73;100.00;97632.44;4139590;28;20209;-45
2022/11/21 05:39:49;;;;;;;3.22;1.48;;;;;;;5.76;100.00;97642.84;4139281;28;20233;-45
2022/11/21 05:41:51;;;;;;;3.03;1.92;;;;;;;5.73;100.00;97641.44;4151508;28;20224;-46
2022/11/21 05:43:56;;;;;;;1.67;1.58;;;;;;;5.76;100.00;97646.34;4152894;28;20589;-46
2022/11/21 05:45:58;;;;;;;1.60;1.50;;;;;;;5.79;100.00;97634.19;4137698;28;20232;-45
2022/11/21 05:48:00;;;;;;;3.03;1.38;;;;;;;5.81;100.00;97640.22;4142638;28;20209;-45
2022/11/21 05:50:02;;;;;;;3.70;2.13;;;;;;;5.84;100.00;97643.28;4138618;28;20292;-45
2022/11/21 05:52:04;;;;;;;3.47;2.80;;;;;;;5.90;100.00;97642.31;4140206;28;20209;-45
2022/11/21 05:54:06;;;;;;;1.95;1.33;;;;;;;5.95;100.00;97641.63;4135611;28;20687;-45
2022/11/21 05:56:09;;;;;;;1.52;1.42;;;;;;;5.95;100.00;97641.63;4137282;28;20198;-45
2022/11/21 05:58:11;;;;;;;6.75;1.42;;;;;;;5.89;100.00;97634.44;4128154;28;20808;-46
2022/11/21 06:00:14;;;;;;;1.70;1.60;;;;;;;5.88;100.00;97649.09;4135112;28;20214;-48
2022/11/21 06:04:36;;;;;;;3.30;1.95;;;;;;;5.86;100.00;97651.19;4133860;28;20588;-46
2022/11/21 06:06:38;;;;;;;1.70;1.50;;;;;;;5.86;100.00;97640.34;4132637;28;20721;-46
2022/11/21 06:08:45;;;;;;;2.70;2.58;;;;;;;5.83;100.00;97635.41;4138211;28;20248;-47
2022/11/21 06:10:47;;;;;;;1.70;1.60;;;;;;;5.89;100.00;97642.59;4136137;28;20206;-46
2022/11/21 06:12:49;;;;;;;5.45;1.95;;;;;;;5.88;100.00;97632.81;4130773;28;20210;-45
2022/11/21 06:14:51;;;;;;;3.92;1.90;;;;;;;5.89;100.00;97634.44;4117465;28;20257;-45
2022/11/21 06:16:53;;;;;;;2.50;2.30;;;;;;;5.89;100.00;97631.72;4134339;28;20198;-46
2022/11/21 06:18:55;;;;;;;2.50;2.25;;;;;;;5.82;100.00;97639.19;4138069;28;20217;-46
2022/11/21 06:21:04;;;;;;;2.33;1.83;;;;;;;5.80;100.00;97644.00;4125338;28;20214;-45
2022/11/21 06:23:06;;;;;;;3.03;1.92;;;;;;;5.77;100.00;97650.72;4137673;28;20266;-45
2022/11/21 06:25:09;;;;;;;1.58;1.48;;;;;;;5.79;100.00;97645.06;4135589;28;20256;-46
2022/11/21 06:27:10;;;;;;;4.00;2.17;;;;;;;5.76;100.00;97650.97;4130402;28;20233;-45
2022/11/21 06:29:12;;;;;;;2.47;1.95;;;;;;;5.73;100.00;97648.72;4114641;28;20302;-45
2022/11/21 06:31:15;;;;;;;1.40;1.30;;;;;;;5.61;100.00;97651.47;4128261;28;20762;-46
2022/11/21 06:33:17;;;;;;;5.10;1.70;;;;;;;5.63;100.00;97652.06;4131142;28;20260;-47
2022/11/21 06:35:19;;;;;;;2.30;1.98;;;;;;;5.59;100.00;97648.19;4148725;28;20321;-46
2022/11/21 06:37:21;;;;;;;5.65;1.83;;;;;;;5.53;100.00;97645.59;4134331;28;20635;-45
2022/11/21 06:39:23;;;;;;;4.45;2.47;;;;;;;5.43;100.00;97642.69;4137020;28;20267;-46
2022/11/21 06:41:29;;;;;;;1.80;1.70;;;;;;;5.38;100.00;97645.28;4138377;28;20276;-45
2022/11/21 06:43:30;;;;;;;4.35;1.83;;;;;;;5.38;100.00;97648.00;4140882;28;20239;-45
2022/11/21 06:45:32;;;;;;;3.25;1.80;;;;;;;5.37;100.00;97646.34;4138162;28;20260;-45
2022/11/21 06:47:35;;;;;;;1.70;1.60;;;;;;;5.40;100.00;97654.00;4140895;28;20260;-46
2022/11/21 06:49:37;;;;;;;1.10;1.08;;;;;;;5.32;100.00;97655.22;4131452;28;20225;-46
2022/11/21 06:51:39;;;;;;;1.77;1.63;;;;;;;5.30;100.00;97651.09;4152416;28;20690;-45
2022/11/21 06:53:41;;;;;;;1.60;1.50;;;;;;;5.34;100.00;97652.22;4135862;28;20229;-45
2022/11/21 06:55:43;;;;;;;1.80;1.65;;;;;;;5.30;100.00;97656.50;4136810;28;20593;-46
2022/11/21 06:57:45;;;;;;;2.00;1.45;;;;;;;5.33;100.00;97653.31;4142374;28;20209;-46
2022/11/21 06:59:47;;;;;;;3.60;1.23;;;;;;;5.34;100.00;97652.22;4142058;28;20279;-47
2022/11/21 07:01:49;;;;;;;1.30;1.20;;;;;;;5.36;100.00;97647.41;4151580;28;20221;-46
2022/11/21 07:03:52;;;;;;;7.40;1.10;;;;;;;5.41;100.00;97650.22;4133956;28;20237;-45
2022/11/21 07:05:57;;;;;;;2.10;1.30;;;;;;;5.43;100.00;97650.81;4119558;28;20217;-46
2022/11/21 07:08:00;;;;;;;1.33;1.20;;;;;;;5.51;100.00;97661.28;4132831;28;20233;-46
2022/11/21 07:10:02;;;;;;;2.20;2.00;;;;;;;5.38;100.00;97651.53;4138103;28;20738;-46
2022/11/21 07:14:25;;;;;;;3.95;1.80;;;;;;;5.42;100.00;97660.84;4138470;28;20267;-46
2022/11/21 07:16:30;;;;;;;1.95;1.30;;;;;;;5.39;100.00;97665.91;4137850;28;20205;-46
2022/11/21 07:18:33;;;;;;;2.05;1.65;;;;;;;5.38;100.00;97661.56;4150500;28;20211;-45
2022/11/21 07:20:35;;;;;;;2.30;1.30;;;;;;;5.28;100.00;97653.19;4124190;28;20282;-45
2022/11/21 07:22:37;;;;;;;3.80;2.33;;;;;;;5.29;100.00;97665.72;4151721;28;20577;-44
2022/11/21 07:24:39;;;;;;;3.40;1.48;;;;;;;5.30;100.00;97675.50;4123816;28;20230;-46
2022/11/21 07:26:41;;;;;;;1.73;1.20;;;;;;;5.32;100.00;97676.06;4137885;28;20243;-44
2022/11/21 07:28:43;;;;;;;2.80;2.10;;;;;;;5.33;100.00;97673.13;4123096;28;20628;-44
2022/11/21 07:30:45;;;;;;;1.63;1.52;;;;;;;5.31;100.00;97669.84;4134873;28;20301;-45
2022/11/21 07:32:54;;;;;;;1.85;1.65;;;;;;;5.31;100.00;97666.28;4129195;28;20209;-44
2022/11/21 07:34:57;;;;;;;2.83;2.40;;;;;;;5.29;100.00;97660.28;4140070;28;20260;-44
2022/11/21 07:36:58;;;;;;;6.40;1.55;;;;;;;5.28;100.00;97664.03;4138797;28;21108;-46
2022/11/21 07:39:01;;;;;;;0.95;0.90;;;;;;;5.33;100.00;97658.72;4142595;28;20205;-45
2022/11/21 07:41:03;;;;;;;1.45;1.27;;;;;;;5.31;100.00;97658.16;4140873;28;20202;-45
2022/11/21 07:43:06;;;;;;;2.10;1.95;;;;;;;5.33;100.00;97661.44;4152319;28;20212;-45
2022/11/21 07:45:13;;;;;;;2.75;1.58;;;;;;;5.33;100.00;97662.28;4134388;28;20228;-44
2022/11/21 07:47:15;;;;;;;2.88;2.67;;;;;;;5.40;100.00;97662.13;4136429;28;20229;-45
2022/11/21 07:49:17;;;;;;;3.47;1.50;;;;;;;5.48;100.00;97659.06;4141031;28;20213;-45
2022/11/21 07:51:19;;;;;;;2.22;1.80;;;;;;;5.79;100.00;97662.22;4141004;28;20205;-46
2022/11/21 07:53:21;;;;;;;2.38;1.63;;;;;;;6.15;100.00;97661.00;4138428;28;20221;-45
2022/11/21 07:55:24;;;;;;;1.85;1.20;;;;;;;6.19;100.00;97663.00;4126817;28;20257;-46
2022/11/21 07:57:26;;;;;;;2.13;1.88;;;;;;;6.58;100.00;97661.25;4121251;28;20207;-46
2022/11/21 07:59:28;;;;;;;1.33;1.23;;;;;;;6.83;100.00;97662.47;4127785;28;20209;-45
2022/11/21 08:01:30;;;;;;;1.70;1.40;;;;;;;7.02;100.00;97655.72;4154417;28;20202;-45
2022/11/21 08:03:33;;;;;;;8.40;3.90;;;;;;;7.54;100.00;97658.91;4129235;28;20228;-45
2022/11/21 08:05:36;;;;;;;2.72;1.85;;;;;;;7.98;100.00;97657.84;4142797;28;20218;-46
2022/11/21 08:07:39;;;;;;;1.33;1.23;;;;;;;8.30;100.00;97656.88;4143688;28;20222;-45
2022/11/21 08:09:41;;;;;;;1.50;1.35;;;;;;;8.46;100.00;97649.69;4140937;28;20267;-45
2022/11/21 08:11:43;;;;;;;2.53;1.50;;;;;;;8.82;99.27;97646.22;4156428;28;20204;-45
2022/11/21 08:13:45;;;;;;;3.13;1.52;;;;;;;8.53;97.76;97651.13;4124565;28;20226;-45
2022/11/21 08:15:47;;;;;;;1.67;1.10;;;;;;;9.07;100.00;97651.84;4125704;28;20210;-45
2022/11/21 08:17:49;;;;;;;1.83;1.70;;;;;;;9.24;97.36;97647.91;4125776;28;20700;-46
2022/11/21 08:19:51;;;;;;;2.67;1.60;;;;;;;9.63;96.14;97648.41;4128147;28;20214;-45
2022/11/21 08:21:54;;;;;;;1.85;1.73;;;;;;;9.56;95.37;97645.09;4144007;28;21028;-46
2022/11/21 08:23:56;;;;;;;1.83;1.48;;;;;;;9.66;94.78;97640.50;4123635;28;20245;-47
2022/11/21 08:25:58;;;;;;;1.40;1.10;;;;;;;9.83;92.43;97641.13;4138991;28;20206;-46
2022/11/21 08:28:01;;;;;;;2.05;1.75;;;;;;;9.70;92.64;97643.53;4131948;28;20226;-46
2022/11/21 08:30:08;;;;;;;3.90;2.28;;;;;;;9.88;91.72;97643.09;4134069;28;20209;-48
2022/11/21 08:32:10;;;;;;;8.23;1.80;;;;;;;9.88;92.45;97635.69;4130847;28;20233;-46
2022/11/21 08:34:12;;;;;;;5.63;1.80;;;;;;;8.94;93.00;97635.97;4145413;28;20617;-46
2022/11/21 08:36:27;;;;;;;3.13;1.75;;;;;;;8.75;95.25;97623.81;4140178;28;20216;-47
2022/11/21 08:38:37;;;;;;;1.63;1.42;;;;;;;8.37;97.49;97624.00;4136546;28;20198;-47
2022/11/21 08:40:39;;;;;;;1.83;1.70;;;;;;;7.86;100.00;97630.75;4138435;28;20214;-47
2022/11/21 08:42:41;;;;;;;4.70;1.23;;;;;;;7.54;100.00;97637.13;4123604;28;20214;-46
2022/11/21 08:44:43;;;;;;;1.98;1.60;;;;;;;7.35;100.00;97635.81;4138182;28;20261;-46
2022/11/21 08:46:44;;;;;;;2.47;1.42;;;;;;;7.38;100.00;97635.31;4153825;28;20243;-46
2022/11/21 08:48:46;;;;;;;1.30;1.20;;;;;;;7.08;100.00;97634.88;4141431;28;20213;-46
2022/11/21 08:50:48;;;;;;;2.08;1.35;;;;;;;6.94;100.00;97633.56;4141141;28;20213;-46
2022/11/21 08:52:50;;;;;;;1.63;1.40;;;;;;;6.81;100.00;97628.44;4138330;28;20250;-46
2022/11/21 08:54:52;;;;;;;4.47;1.48;;;;;;;7.07;100.00;97611.44;4122448;28;20786;-46
2022/11/21 08:56:53;;;;;;;1.75;1.42;;;;;;;7.29;100.00;97615.06;4138015;28;20210;-46
2022/11/21 08:58:55;;;;;;;3.33;2.92;;;;;;;7.73;100.00;97616.69;4137739;28;20240;-46
2022/11/21 09:00:59;;;;;;;2.15;1.75;;;;;;;7.74;100.00;97608.28;4125845;28;20229;-46
2022/11/21 09:03:04;;;;;;;2.60;1.83;;;;;;;7.59;100.00;97619.00;4141451;28;20208;-46
2022/11/21 09:05:06;;;;;;;3.90;1.42;;;;;;;7.62;100.00;97607.59;4118594;28;20213;-46
2022/11/21 09:07:08;;;;;;;2.85;1.52;;;;;;;7.79;100.00;97607.53;4141865;28;20735;-46
2022/11/21 09:09:10;;;;;;;3.78;1.13;;;;;;;7.80;100.00;97614.59;4152710;28;20259;-47
2022/11/21 09:11:12;;;;;;;2.72;1.45;;;;;;;7.67;100.00;97606.81;4153192;28;20296;-46
2022/11/21 09:13:14;;;;;;;3.22;1.67;;;;;;;7.79;100.00;97593.91;4135710;28;20384;-47
2022/11/21 09:19:59;;;;;;;3.20;1.55;;;;;;;7.82;100.00;97588.75;4140224;28;20252;-46
2022/11/21 09:22:01;;;;;;;9.48;3.05;;;;;;;7.70;100.00;97579.09;4136978;28;20668;-46
2022/11/21 09:24:03;;;;;;;1.83;1.73;;;;;;;7.71;100.00;97586.19;4152776;28;20244;-46
2022/11/21 09:26:05;;;;;;;2.55;1.42;;;;;;;7.78;100.00;97587.66;4132117;28;20600;-46
2022/11/21 09:28:08;;;;;;;3.92;1.73;;;;;;;7.71;100.00;97588.91;4137907;28;20309;-46
2022/11/21 09:30:10;;;;;;;2.33;1.45;;;;;;;7.44;100.00;97582.59;4140481;28;20300;-47
2022/11/21 09:32:12;;;;;;;2.90;1.38;;;;;;;7.38;100.00;97586.31;4142751;28;20232;-46
2022/11/21 09:34:14;;;;;;;1.42;1.33;;;;;;;7.48;100.00;97581.03;4137565;28;20235;-45
2022/11/21 09:36:16;;;;;;;2.00;1.48;;;;;;;7.70;100.00;97581.81;4138088;28;20232;-46
2022/11/21 09:38:17;;;;;;;3.03;1.50;;;;;;;7.97;100.00;97580.78;4121514;28;20309;-46
2022/11/21 09:40:25;;;;;;;4.35;3.60;;;;;;;8.47;100.00;97570.38;4133074;28;20259;-46
2022/11/21 09:42:43;;;;;;;2.90;1.95;;;;;;;9.00;100.00;97570.25;4153790;28;20205;-46
2022/11/21 09:45:07;;;;;;;3.08;1.88;;;;;;;9.62;96.80;97553.91;4133376;28;20238;-47
2022/11/21 09:47:26;;;;;;;2.85;1.33;;;;;;;9.43;94.58;97552.75;4133363;28;20210;-46
2022/11/21 09:49:28;;;;;;;1.30;1.17;;;;;;;10.08;96.19;97563.94;4137168;28;20635;-46
2022/11/21 09:51:31;;;;;;;1.63;1.20;;;;;;;10.45;92.39;97561.78;4138455;28;20205;-46
2022/11/21 09:53:36;;;;;;;3.03;2.03;;;;;;;10.30;92.52;97570.81;4133062;28;20225;-46